sensor_id;sensor_type;location;lat;lon;timestamp;pressure;altitude;pressure_sealevel;temperature;humidity
12349;BME280;5974;42.710;27.258;2023-02-10T00:00:56;102343.75;;;-3.51;88.50
12349;BME280;5974;42.710;27.258;2023-02-10T00:03:23;102352.06;;;-3.55;88.05
12349;BME280;5974;42.710;27.258;2023-02-10T00:05:49;102356.28;;;-3.55;88.09
12349;BME280;5974;42.710;27.258;2023-02-10T00:08:16;102355.31;;;-3.73;89.05
12349;BME280;5974;42.710;27.258;2023-02-10T00:10:44;102351.88;;;-3.74;89.03
12349;BME280;5974;42.710;27.258;2023-02-10T00:13:11;102364.75;;;-3.72;88.55
12349;BME280;5974;42.710;27.258;2023-02-10T00:15:38;102343.31;;;-4.07;90.79
12349;BME280;5974;42.710;27.258;2023-02-10T00:18:05;102349.03;;;-4.11;91.49
12349;BME280;5974;42.710;27.258;2023-02-10T00:20:32;102349.31;;;-3.90;89.97
12349;BME280;5974;42.710;27.258;2023-02-10T00:22:59;102346.06;;;-3.88;89.35
12349;BME280;5974;42.710;27.258;2023-02-10T00:25:25;102352.97;;;-4.01;90.49
12349;BME280;5974;42.710;27.258;2023-02-10T00:27:54;102346.69;;;-4.22;92.45
12349;BME280;5974;42.710;27.258;2023-02-10T00:30:20;102343.81;;;-4.28;93.28
12349;BME280;5974;42.710;27.258;2023-02-10T00:32:47;102338.94;;;-4.24;93.14
12349;BME280;5974;42.710;27.258;2023-02-10T00:35:14;102338.31;;;-4.20;92.62
12349;BME280;5974;42.710;27.258;2023-02-10T00:37:41;102342.03;;;-4.29;92.78
12349;BME280;5974;42.710;27.258;2023-02-10T00:40:08;102332.56;;;-4.32;92.85
12349;BME280;5974;42.710;27.258;2023-02-10T00:42:35;102327.19;;;-4.37;91.94
12349;BME280;5974;42.710;27.258;2023-02-10T00:45:04;102328.00;;;-4.21;90.60
12349;BME280;5974;42.710;27.258;2023-02-10T00:47:31;102338.94;;;-4.09;88.97
12349;BME280;5974;42.710;27.258;2023-02-10T00:49:58;102307.28;;;-4.11;87.05
12349;BME280;5974;42.710;27.258;2023-02-10T00:52:24;102336.47;;;-3.92;85.26
12349;BME280;5974;42.710;27.258;2023-02-10T00:54:51;102331.59;;;-3.87;84.32
12349;BME280;5974;42.710;27.258;2023-02-10T00:57:18;102328.50;;;-3.81;83.86
12349;BME280;5974;42.710;27.258;2023-02-10T00:59:45;102330.34;;;-3.79;82.44
12349;BME280;5974;42.710;27.258;2023-02-10T01:02:13;102332.56;;;-3.85;81.57
12349;BME280;5974;42.710;27.258;2023-02-10T01:04:40;102330.81;;;-3.70;82.16
12349;BME280;5974;42.710;27.258;2023-02-10T01:07:07;102330.34;;;-3.79;81.92
12349;BME280;5974;42.710;27.258;2023-02-10T01:09:34;102327.63;;;-3.82;81.64
12349;BME280;5974;42.710;27.258;2023-02-10T01:12:01;102336.00;;;-3.85;81.87
12349;BME280;5974;42.710;27.258;2023-02-10T01:14:28;102338.72;;;-3.81;81.02
12349;BME280;5974;42.710;27.258;2023-02-10T01:16:55;102332.47;;;-3.87;80.85
12349;BME280;5974;42.710;27.258;2023-02-10T01:19:23;102328.47;;;-3.98;80.79
12349;BME280;5974;42.710;27.258;2023-02-10T01:21:50;102329.53;;;-3.94;81.21
12349;BME280;5974;42.710;27.258;2023-02-10T01:24:17;102339.31;;;-4.02;82.31
12349;BME280;5974;42.710;27.258;2023-02-10T01:26:44;102337.72;;;-4.16;83.72
12349;BME280;5974;42.710;27.258;2023-02-10T01:29:10;102335.94;;;-4.17;85.03
12349;BME280;5974;42.710;27.258;2023-02-10T01:31:37;102338.38;;;-4.34;86.15
12349;BME280;5974;42.710;27.258;2023-02-10T01:34:04;102336.19;;;-4.43;87.60
12349;BME280;5974;42.710;27.258;2023-02-10T01:36:32;102332.59;;;-4.47;88.20
12349;BME280;5974;42.710;27.258;2023-02-10T01:38:59;102334.16;;;-4.49;87.92
12349;BME280;5974;42.710;27.258;2023-02-10T01:41:26;102325.09;;;-4.44;87.85
12349;BME280;5974;42.710;27.258;2023-02-10T01:43:56;102325.81;;;-4.46;88.03
12349;BME280;5974;42.710;27.258;2023-02-10T01:46:23;102324.38;;;-4.41;87.73
12349;BME280;5974;42.710;27.258;2023-02-10T01:48:51;102313.84;;;-4.47;86.79
12349;BME280;5974;42.710;27.258;2023-02-10T01:51:19;102324.38;;;-4.41;87.55
12349;BME280;5974;42.710;27.258;2023-02-10T01:53:51;102314.41;;;-4.37;87.46
12349;BME280;5974;42.710;27.258;2023-02-10T01:56:18;102314.69;;;-4.32;86.50
12349;BME280;5974;42.710;27.258;2023-02-10T01:58:45;102306.84;;;-4.35;85.44
12349;BME280;5974;42.710;27.258;2023-02-10T02:01:12;102273.97;;;-4.45;84.97
12349;BME280;5974;42.710;27.258;2023-02-10T02:03:39;102310.06;;;-4.23;83.17
12349;BME280;5974;42.710;27.258;2023-02-10T02:06:06;102308.41;;;-4.22;84.30
12349;BME280;5974;42.710;27.258;2023-02-10T02:08:33;102304.31;;;-4.35;84.71
12349;BME280;5974;42.710;27.258;2023-02-10T02:11:10;102299.31;;;-4.48;86.46
12349;BME280;5974;42.710;27.258;2023-02-10T02:14:10;102296.09;;;-4.60;88.47
12349;BME280;5974;42.710;27.258;2023-02-10T02:16:56;102305.88;;;-4.82;91.15
12349;BME280;5974;42.710;27.258;2023-02-10T02:19:42;102304.41;;;-4.94;92.34
12349;BME280;5974;42.710;27.258;2023-02-10T02:22:41;102305.53;;;-4.88;93.77
12349;BME280;5974;42.710;27.258;2023-02-10T02:25:22;102297.53;;;-4.95;94.44
12349;BME280;5974;42.710;27.258;2023-02-10T02:28:03;102300.91;;;-4.96;94.61
12349;BME280;5974;42.710;27.258;2023-02-10T02:30:52;102293.69;;;-5.03;94.87
12349;BME280;5974;42.710;27.258;2023-02-10T02:33:26;102298.25;;;-4.97;95.09
12349;BME280;5974;42.710;27.258;2023-02-10T02:36:00;102295.63;;;-4.99;95.79
12349;BME280;5974;42.710;27.258;2023-02-10T02:38:28;102293.75;;;-5.01;96.08
12349;BME280;5974;42.710;27.258;2023-02-10T02:40:55;102292.09;;;-5.01;95.87
12349;BME280;5974;42.710;27.258;2023-02-10T02:43:22;102294.41;;;-5.05;96.12
12349;BME280;5974;42.710;27.258;2023-02-10T02:45:55;102287.81;;;-5.02;95.93
12349;BME280;5974;42.710;27.258;2023-02-10T02:48:35;102298.78;;;-5.03;95.91
12349;BME280;5974;42.710;27.258;2023-02-10T02:51:09;102296.13;;;-5.04;96.39
12349;BME280;5974;42.710;27.258;2023-02-10T02:53:46;102291.91;;;-5.04;96.21
12349;BME280;5974;42.710;27.258;2023-02-10T02:56:25;102294.66;;;-5.01;96.26
12349;BME280;5974;42.710;27.258;2023-02-10T02:59:01;102289.13;;;-5.08;96.50
12349;BME280;5974;42.710;27.258;2023-02-10T03:01:33;102290.09;;;-5.06;96.37
12349;BME280;5974;42.710;27.258;2023-02-10T03:04:03;102293.34;;;-5.09;96.30
12349;BME280;5974;42.710;27.258;2023-02-10T03:06:30;102293.09;;;-4.99;95.63
12349;BME280;5974;42.710;27.258;2023-02-10T03:08:57;102282.72;;;-5.02;95.22
12349;BME280;5974;42.710;27.258;2023-02-10T03:11:24;102281.56;;;-5.07;95.39
12349;BME280;5974;42.710;27.258;2023-02-10T03:13:51;102283.50;;;-5.03;95.63
12349;BME280;5974;42.710;27.258;2023-02-10T03:16:18;102287.72;;;-5.03;94.99
12349;BME280;5974;42.710;27.258;2023-02-10T03:18:44;102286.66;;;-5.07;95.66
12349;BME280;5974;42.710;27.258;2023-02-10T03:21:13;102284.47;;;-5.15;95.95
12349;BME280;5974;42.710;27.258;2023-02-10T03:23:39;102279.19;;;-5.18;96.55
12349;BME280;5974;42.710;27.258;2023-02-10T03:26:06;102279.28;;;-5.17;96.54
12349;BME280;5974;42.710;27.258;2023-02-10T03:28:33;102279.06;;;-5.20;97.01
12349;BME280;5974;42.710;27.258;2023-02-10T03:31:02;102280.06;;;-5.18;97.37
12349;BME280;5974;42.710;27.258;2023-02-10T03:33:29;102265.22;;;-5.25;96.59
12349;BME280;5974;42.710;27.258;2023-02-10T03:35:56;102283.56;;;-5.16;96.41
12349;BME280;5974;42.710;27.258;2023-02-10T03:38:26;102276.09;;;-5.13;96.16
12349;BME280;5974;42.710;27.258;2023-02-10T03:40:53;102270.22;;;-5.12;95.42
12349;BME280;5974;42.710;27.258;2023-02-10T03:43:21;102276.28;;;-5.10;95.35
12349;BME280;5974;42.710;27.258;2023-02-10T03:45:48;102271.28;;;-5.08;94.49
12349;BME280;5974;42.710;27.258;2023-02-10T03:48:15;102266.97;;;-5.09;94.18
12349;BME280;5974;42.710;27.258;2023-02-10T03:50:42;102261.09;;;-5.08;93.56
12349;BME280;5974;42.710;27.258;2023-02-10T03:53:10;102267.56;;;-5.13;93.15
12349;BME280;5974;42.710;27.258;2023-02-10T03:55:38;102262.91;;;-5.06;92.73
12349;BME280;5974;42.710;27.258;2023-02-10T03:58:05;102256.94;;;-5.06;92.58
12349;BME280;5974;42.710;27.258;2023-02-10T04:00:31;102257.72;;;-5.07;92.55
12349;BME280;5974;42.710;27.258;2023-02-10T04:02:58;102255.00;;;-5.10;92.42
12349;BME280;5974;42.710;27.258;2023-02-10T04:05:25;102251.84;;;-5.06;91.67
12349;BME280;5974;42.710;27.258;2023-02-10T04:07:52;102256.06;;;-5.07;91.49
12349;BME280;5974;42.710;27.258;2023-02-10T04:10:19;102252.72;;;-5.06;91.08
12349;BME280;5974;42.710;27.258;2023-02-10T04:12:48;102244.97;;;-5.07;91.34
12349;BME280;5974;42.710;27.258;2023-02-10T04:15:15;102238.84;;;-5.11;90.90
12349;BME280;5974;42.710;27.258;2023-02-10T04:17:42;102237.66;;;-5.01;90.42
12349;BME280;5974;42.710;27.258;2023-02-10T04:20:10;102235.81;;;-5.04;89.81
12349;BME280;5974;42.710;27.258;2023-02-10T04:22:36;102240.94;;;-5.04;89.52
12349;BME280;5974;42.710;27.258;2023-02-10T04:25:04;102245.25;;;-5.03;89.09
12349;BME280;5974;42.710;27.258;2023-02-10T04:27:31;102236.00;;;-5.01;89.43
12349;BME280;5974;42.710;27.258;2023-02-10T04:29:59;102243.56;;;-5.02;89.56
12349;BME280;5974;42.710;27.258;2023-02-10T04:32:26;102243.47;;;-5.04;88.97
12349;BME280;5974;42.710;27.258;2023-02-10T04:34:53;102243.56;;;-5.02;89.20
12349;BME280;5974;42.710;27.258;2023-02-10T04:37:21;102230.03;;;-5.16;89.39
12349;BME280;5974;42.710;27.258;2023-02-10T04:39:48;102245.31;;;-5.01;89.27
12349;BME280;5974;42.710;27.258;2023-02-10T04:42:16;102242.16;;;-4.97;88.78
12349;BME280;5974;42.710;27.258;2023-02-10T04:44:42;102240.38;;;-4.98;88.44
12349;BME280;5974;42.710;27.258;2023-02-10T04:47:11;102235.22;;;-5.00;88.67
12349;BME280;5974;42.710;27.258;2023-02-10T04:49:37;102238.47;;;-5.02;88.23
12349;BME280;5974;42.710;27.258;2023-02-10T04:52:04;102238.19;;;-4.92;87.88
12349;BME280;5974;42.710;27.258;2023-02-10T04:54:31;102236.50;;;-4.92;87.43
12349;BME280;5974;42.710;27.258;2023-02-10T04:56:58;102239.69;;;-4.96;87.30
12349;BME280;5974;42.710;27.258;2023-02-10T04:59:25;102233.78;;;-4.95;87.07
12349;BME280;5974;42.710;27.258;2023-02-10T05:01:51;102230.34;;;-4.95;87.02
12349;BME280;5974;42.710;27.258;2023-02-10T05:04:20;102227.97;;;-4.92;86.35
12349;BME280;5974;42.710;27.258;2023-02-10T05:06:47;102232.41;;;-4.89;86.34
12349;BME280;5974;42.710;27.258;2023-02-10T05:09:14;102231.50;;;-4.90;86.21
12349;BME280;5974;42.710;27.258;2023-02-10T05:11:41;102228.97;;;-4.90;85.52
12349;BME280;5974;42.710;27.258;2023-02-10T05:14:09;102232.22;;;-4.93;85.17
12349;BME280;5974;42.710;27.258;2023-02-10T05:16:35;102233.69;;;-4.81;84.61
12349;BME280;5974;42.710;27.258;2023-02-10T05:19:03;102240.88;;;-4.74;83.88
12349;BME280;5974;42.710;27.258;2023-02-10T05:21:31;102240.34;;;-4.69;83.14
12349;BME280;5974;42.710;27.258;2023-02-10T05:23:58;102237.56;;;-4.57;81.69
12349;BME280;5974;42.710;27.258;2023-02-10T05:26:25;102237.13;;;-4.50;80.83
12349;BME280;5974;42.710;27.258;2023-02-10T05:28:52;102243.66;;;-4.39;80.11
12349;BME280;5974;42.710;27.258;2023-02-10T05:31:18;102241.44;;;-4.33;79.30
12349;BME280;5974;42.710;27.258;2023-02-10T05:33:45;102241.53;;;-4.31;78.85
12349;BME280;5974;42.710;27.258;2023-02-10T05:36:12;102244.81;;;-4.18;78.46
12349;BME280;5974;42.710;27.258;2023-02-10T05:38:40;102243.44;;;-4.11;77.64
12349;BME280;5974;42.710;27.258;2023-02-10T05:41:28;102240.97;;;-3.94;76.95
12349;BME280;5974;42.710;27.258;2023-02-10T05:43:55;102243.94;;;-3.86;76.36
12349;BME280;5974;42.710;27.258;2023-02-10T05:46:22;102241.69;;;-3.96;76.17
12349;BME280;5974;42.710;27.258;2023-02-10T05:48:49;102236.69;;;-3.95;75.84
12349;BME280;5974;42.710;27.258;2023-02-10T05:51:15;102236.44;;;-3.83;75.56
12349;BME280;5974;42.710;27.258;2023-02-10T05:53:44;102251.03;;;-3.80;75.58
12349;BME280;5974;42.710;27.258;2023-02-10T05:56:11;102234.81;;;-3.65;74.80
12349;BME280;5974;42.710;27.258;2023-02-10T05:58:37;102241.50;;;-3.17;74.66
12349;BME280;5974;42.710;27.258;2023-02-10T06:01:06;102250.38;;;-0.37;72.31
12349;BME280;5974;42.710;27.258;2023-02-10T06:03:33;102250.31;;;1.90;65.19
12349;BME280;5974;42.710;27.258;2023-02-10T06:06:00;102217.50;;;3.15;58.47
12349;BME280;5974;42.710;27.258;2023-02-10T06:08:27;102244.97;;;4.30;54.40
12349;BME280;5974;42.710;27.258;2023-02-10T06:10:55;102245.53;;;5.68;51.51
12349;BME280;5974;42.710;27.258;2023-02-10T06:13:22;102249.22;;;4.26;51.77
12349;BME280;5974;42.710;27.258;2023-02-10T06:15:49;102247.91;;;6.16;49.56
12349;BME280;5974;42.710;27.258;2023-02-10T06:18:16;102251.19;;;6.78;46.83
12349;BME280;5974;42.710;27.258;2023-02-10T06:20:45;102248.31;;;5.80;46.29
12349;BME280;5974;42.710;27.258;2023-02-10T06:23:12;102247.72;;;6.79;47.01
12349;BME280;5974;42.710;27.258;2023-02-10T06:25:39;102242.53;;;5.38;46.90
12349;BME280;5974;42.710;27.258;2023-02-10T06:28:07;102248.69;;;6.89;46.10
12349;BME280;5974;42.710;27.258;2023-02-10T06:30:34;102240.28;;;7.22;44.70
12349;BME280;5974;42.710;27.258;2023-02-10T06:33:00;102243.31;;;8.00;43.09
12349;BME280;5974;42.710;27.258;2023-02-10T06:35:27;102240.06;;;8.48;42.29
12349;BME280;5974;42.710;27.258;2023-02-10T06:37:54;102244.84;;;7.56;42.47
12349;BME280;5974;42.710;27.258;2023-02-10T06:40:21;102252.28;;;6.20;43.77
12349;BME280;5974;42.710;27.258;2023-02-10T06:42:48;102263.00;;;7.44;42.68
12349;BME280;5974;42.710;27.258;2023-02-10T06:45:16;102260.03;;;9.66;40.29
12349;BME280;5974;42.710;27.258;2023-02-10T06:47:43;102250.47;;;8.56;40.60
12349;BME280;5974;42.710;27.258;2023-02-10T06:50:10;102242.53;;;8.19;41.02
12349;BME280;5974;42.710;27.258;2023-02-10T06:52:37;102256.56;;;9.67;39.22
12349;BME280;5974;42.710;27.258;2023-02-10T06:55:06;102253.09;;;8.53;39.31
12349;BME280;5974;42.710;27.258;2023-02-10T06:57:33;102248.59;;;10.03;38.40
12349;BME280;5974;42.710;27.258;2023-02-10T07:00:02;102259.22;;;9.44;37.95
12349;BME280;5974;42.710;27.258;2023-02-10T07:02:30;102264.34;;;9.85;38.31
12349;BME280;5974;42.710;27.258;2023-02-10T07:04:57;102260.78;;;10.07;38.17
12349;BME280;5974;42.710;27.258;2023-02-10T07:07:24;102261.44;;;10.58;37.70
12349;BME280;5974;42.710;27.258;2023-02-10T07:09:51;102266.94;;;9.96;37.98
12349;BME280;5974;42.710;27.258;2023-02-10T07:12:18;102263.50;;;9.80;36.83
12349;BME280;5974;42.710;27.258;2023-02-10T07:14:45;102264.66;;;10.98;36.45
12349;BME280;5974;42.710;27.258;2023-02-10T07:17:12;102260.09;;;8.90;36.78
12349;BME280;5974;42.710;27.258;2023-02-10T07:19:40;102265.44;;;11.06;35.54
12349;BME280;5974;42.710;27.258;2023-02-10T07:22:07;102249.75;;;13.16;33.40
12349;BME280;5974;42.710;27.258;2023-02-10T07:24:34;102258.56;;;12.54;34.54
12349;BME280;5974;42.710;27.258;2023-02-10T07:27:01;102254.31;;;13.02;33.16
12349;BME280;5974;42.710;27.258;2023-02-10T07:29:28;102258.47;;;14.10;32.58
12349;BME280;5974;42.710;27.258;2023-02-10T07:31:55;102262.97;;;13.12;33.03
12349;BME280;5974;42.710;27.258;2023-02-10T07:34:23;102257.22;;;12.24;33.88
12349;BME280;5974;42.710;27.258;2023-02-10T07:36:52;102253.69;;;11.52;33.58
12349;BME280;5974;42.710;27.258;2023-02-10T07:39:20;102260.78;;;10.21;35.70
12349;BME280;5974;42.710;27.258;2023-02-10T07:41:47;102265.31;;;5.59;39.37
12349;BME280;5974;42.710;27.258;2023-02-10T07:44:15;102260.34;;;5.17;41.63
12349;BME280;5974;42.710;27.258;2023-02-10T07:46:41;102257.63;;;5.11;42.37
12349;BME280;5974;42.710;27.258;2023-02-10T07:49:08;102258.22;;;4.45;43.63
12349;BME280;5974;42.710;27.258;2023-02-10T07:51:35;102271.09;;;4.00;43.95
12349;BME280;5974;42.710;27.258;2023-02-10T07:54:04;102272.25;;;3.35;46.56
12349;BME280;5974;42.710;27.258;2023-02-10T07:56:31;102269.75;;;2.38;47.70
12349;BME280;5974;42.710;27.258;2023-02-10T07:58:58;102270.41;;;2.62;48.17
12349;BME280;5974;42.710;27.258;2023-02-10T08:01:25;102261.19;;;3.79;46.56
12349;BME280;5974;42.710;27.258;2023-02-10T08:03:52;102261.28;;;3.84;46.77
12349;BME280;5974;42.710;27.258;2023-02-10T08:06:19;102259.66;;;3.13;47.60
12349;BME280;5974;42.710;27.258;2023-02-10T08:08:47;102256.09;;;3.45;47.91
12349;BME280;5974;42.710;27.258;2023-02-10T08:11:16;102254.31;;;3.81;47.22
12349;BME280;5974;42.710;27.258;2023-02-10T08:13:44;102257.28;;;4.42;46.08
12349;BME280;5974;42.710;27.258;2023-02-10T08:16:11;102252.81;;;4.34;46.65
12349;BME280;5974;42.710;27.258;2023-02-10T08:18:38;102257.75;;;5.17;45.43
12349;BME280;5974;42.710;27.258;2023-02-10T08:21:05;102250.75;;;4.17;46.59
12349;BME280;5974;42.710;27.258;2023-02-10T08:23:32;102262.41;;;4.38;47.05
12349;BME280;5974;42.710;27.258;2023-02-10T08:26:02;102266.59;;;3.90;47.51
12349;BME280;5974;42.710;27.258;2023-02-10T08:28:31;102263.06;;;4.75;47.68
12349;BME280;5974;42.710;27.258;2023-02-10T08:30:58;102261.19;;;4.66;47.15
12349;BME280;5974;42.710;27.258;2023-02-10T08:33:25;102268.19;;;4.72;47.20
12349;BME280;5974;42.710;27.258;2023-02-10T08:35:52;102273.53;;;4.81;46.26
12349;BME280;5974;42.710;27.258;2023-02-10T08:38:19;102277.22;;;5.46;44.99
12349;BME280;5974;42.710;27.258;2023-02-10T08:40:53;102275.41;;;4.88;47.51
12349;BME280;5974;42.710;27.258;2023-02-10T08:43:20;102265.88;;;5.38;47.38
12349;BME280;5974;42.710;27.258;2023-02-10T08:45:49;102270.31;;;5.48;45.79
12349;BME280;5974;42.710;27.258;2023-02-10T08:48:16;102259.69;;;5.87;45.09
12349;BME280;5974;42.710;27.258;2023-02-10T08:50:43;102266.38;;;5.74;46.08
12349;BME280;5974;42.710;27.258;2023-02-10T08:53:10;102270.81;;;5.23;46.60
12349;BME280;5974;42.710;27.258;2023-02-10T08:55:37;102272.06;;;5.49;47.00
12349;BME280;5974;42.710;27.258;2023-02-10T08:58:03;102270.16;;;4.85;47.06
12349;BME280;5974;42.710;27.258;2023-02-10T09:00:31;102270.84;;;3.87;50.10
12349;BME280;5974;42.710;27.258;2023-02-10T09:02:59;102266.69;;;4.36;50.47
12349;BME280;5974;42.710;27.258;2023-02-10T09:05:26;102262.41;;;5.39;47.93
12349;BME280;5974;42.710;27.258;2023-02-10T09:07:55;102256.19;;;4.77;48.28
12349;BME280;5974;42.710;27.258;2023-02-10T09:10:22;102266.53;;;3.87;49.64
12349;BME280;5974;42.710;27.258;2023-02-10T09:12:48;102272.09;;;4.05;49.17
12349;BME280;5974;42.710;27.258;2023-02-10T09:15:15;102272.88;;;3.62;50.02
12349;BME280;5974;42.710;27.258;2023-02-10T09:17:42;102262.00;;;3.78;51.08
12349;BME280;5974;42.710;27.258;2023-02-10T09:20:11;102261.13;;;3.76;50.92
12349;BME280;5974;42.710;27.258;2023-02-10T09:22:38;102255.88;;;3.35;52.22
12349;BME280;5974;42.710;27.258;2023-02-10T09:25:05;102255.59;;;3.61;54.12
12349;BME280;5974;42.710;27.258;2023-02-10T09:27:32;102254.06;;;3.69;52.43
12349;BME280;5974;42.710;27.258;2023-02-10T09:29:59;102250.19;;;3.90;53.48
12349;BME280;5974;42.710;27.258;2023-02-10T09:32:26;102245.50;;;4.14;52.26
12349;BME280;5974;42.710;27.258;2023-02-10T09:34:53;102236.69;;;4.48;51.54
12349;BME280;5974;42.710;27.258;2023-02-10T09:37:21;102251.25;;;3.99;52.70
12349;BME280;5974;42.710;27.258;2023-02-10T09:39:48;102245.97;;;3.93;52.81
12349;BME280;5974;42.710;27.258;2023-02-10T09:42:21;102239.25;;;3.62;52.76
12349;BME280;5974;42.710;27.258;2023-02-10T09:44:55;102228.97;;;4.51;51.71
12349;BME280;5974;42.710;27.258;2023-02-10T09:47:38;102225.44;;;3.62;52.89
12349;BME280;5974;42.710;27.258;2023-02-10T09:50:22;102217.38;;;4.30;52.49
12349;BME280;5974;42.710;27.258;2023-02-10T09:53:08;102214.41;;;4.57;51.43
12349;BME280;5974;42.710;27.258;2023-02-10T09:55:40;102216.69;;;4.41;51.72
12349;BME280;5974;42.710;27.258;2023-02-10T09:58:16;102202.94;;;3.98;51.63
12349;BME280;5974;42.710;27.258;2023-02-10T10:00:45;102208.19;;;4.49;52.21
12349;BME280;5974;42.710;27.258;2023-02-10T10:03:16;102190.56;;;4.27;51.76
12349;BME280;5974;42.710;27.258;2023-02-10T10:05:52;102190.28;;;4.13;52.09
12349;BME280;5974;42.710;27.258;2023-02-10T10:08:27;102189.72;;;4.29;51.74
12349;BME280;5974;42.710;27.258;2023-02-10T10:11:00;102204.72;;;4.47;53.59
12349;BME280;5974;42.710;27.258;2023-02-10T10:13:29;102196.63;;;4.78;52.80
12349;BME280;5974;42.710;27.258;2023-02-10T10:16:13;102187.38;;;4.94;53.51
12349;BME280;5974;42.710;27.258;2023-02-10T10:18:50;102175.81;;;4.72;51.98
12349;BME280;5974;42.710;27.258;2023-02-10T10:21:26;102172.84;;;5.05;52.45
12349;BME280;5974;42.710;27.258;2023-02-10T10:24:04;102174.66;;;5.09;52.87
12349;BME280;5974;42.710;27.258;2023-02-10T10:26:47;102163.00;;;4.83;52.04
12349;BME280;5974;42.710;27.258;2023-02-10T10:29:20;102158.34;;;5.18;53.56
12349;BME280;5974;42.710;27.258;2023-02-10T10:31:56;102157.97;;;5.52;53.07
12349;BME280;5974;42.710;27.258;2023-02-10T10:34:27;102162.91;;;4.75;52.60
12349;BME280;5974;42.710;27.258;2023-02-10T10:36:58;102157.25;;;5.01;53.39
12349;BME280;5974;42.710;27.258;2023-02-10T10:39:32;102153.13;;;4.59;53.88
12349;BME280;5974;42.710;27.258;2023-02-10T10:42:12;102144.25;;;4.98;52.03
12349;BME280;5974;42.710;27.258;2023-02-10T10:44:42;102147.47;;;4.30;53.95
12349;BME280;5974;42.710;27.258;2023-02-10T10:47:14;102147.31;;;4.74;53.84
12349;BME280;5974;42.710;27.258;2023-02-10T10:49:42;102151.44;;;5.17;53.05
12349;BME280;5974;42.710;27.258;2023-02-10T10:52:23;102152.72;;;4.87;52.18
12349;BME280;5974;42.710;27.258;2023-02-10T10:54:54;102145.34;;;5.13;52.70
12349;BME280;5974;42.710;27.258;2023-02-10T10:57:22;102141.78;;;5.07;51.78
12349;BME280;5974;42.710;27.258;2023-02-10T10:59:53;102138.41;;;5.14;51.63
12349;BME280;5974;42.710;27.258;2023-02-10T11:02:22;102130.38;;;5.60;52.61
12349;BME280;5974;42.710;27.258;2023-02-10T11:05:00;102135.72;;;5.71;52.15
12349;BME280;5974;42.710;27.258;2023-02-10T11:07:28;102134.91;;;4.53;52.43
12349;BME280;5974;42.710;27.258;2023-02-10T11:09:59;102133.69;;;5.47;52.79
12349;BME280;5974;42.710;27.258;2023-02-10T11:12:31;102125.59;;;5.24;51.37
12349;BME280;5974;42.710;27.258;2023-02-10T11:14:59;102121.66;;;5.52;51.62
12349;BME280;5974;42.710;27.258;2023-02-10T11:17:32;102127.50;;;5.36;52.00
12349;BME280;5974;42.710;27.258;2023-02-10T11:20:04;102108.63;;;4.84;53.56
12349;BME280;5974;42.710;27.258;2023-02-10T11:22:31;102127.81;;;4.99;53.05
12349;BME280;5974;42.710;27.258;2023-02-10T11:25:01;102113.31;;;5.11;53.13
12349;BME280;5974;42.710;27.258;2023-02-10T11:27:28;102113.31;;;5.11;53.10
12349;BME280;5974;42.710;27.258;2023-02-10T11:29:56;102122.56;;;4.92;51.87
12349;BME280;5974;42.710;27.258;2023-02-10T11:32:25;102108.91;;;4.47;53.09
12349;BME280;5974;42.710;27.258;2023-02-10T11:34:55;102101.69;;;4.82;53.05
12349;BME280;5974;42.710;27.258;2023-02-10T11:37:26;102092.94;;;4.77;52.15
12349;BME280;5974;42.710;27.258;2023-02-10T11:39:54;102098.44;;;4.40;53.18
12349;BME280;5974;42.710;27.258;2023-02-10T11:42:25;102100.16;;;4.41;53.43
12349;BME280;5974;42.710;27.258;2023-02-10T11:44:55;102093.50;;;4.56;52.52
12349;BME280;5974;42.710;27.258;2023-02-10T11:47:22;102090.47;;;4.29;53.58
12349;BME280;5974;42.710;27.258;2023-02-10T11:49:49;102084.34;;;4.76;52.79
12349;BME280;5974;42.710;27.258;2023-02-10T11:52:17;102075.06;;;4.92;52.98
12349;BME280;5974;42.710;27.258;2023-02-10T11:54:46;102085.25;;;4.83;53.07
12349;BME280;5974;42.710;27.258;2023-02-10T11:57:24;102071.81;;;5.08;52.51
12349;BME280;5974;42.710;27.258;2023-02-10T12:00:14;102074.13;;;4.88;52.84
12349;BME280;5974;42.710;27.258;2023-02-10T12:03:07;102067.59;;;5.16;51.56
12349;BME280;5974;42.710;27.258;2023-02-10T12:05:44;102070.16;;;5.13;52.58
12349;BME280;5974;42.710;27.258;2023-02-10T12:08:22;102063.72;;;4.85;52.64
12349;BME280;5974;42.710;27.258;2023-02-10T12:10:53;102067.13;;;4.83;51.93
12349;BME280;5974;42.710;27.258;2023-02-10T12:13:33;102066.03;;;4.66;52.71
12349;BME280;5974;42.710;27.258;2023-02-10T12:16:11;102047.84;;;5.27;53.36
12349;BME280;5974;42.710;27.258;2023-02-10T12:18:58;102045.69;;;4.93;52.59
12349;BME280;5974;42.710;27.258;2023-02-10T12:21:44;102051.91;;;5.04;52.56
12349;BME280;5974;42.710;27.258;2023-02-10T12:24:30;102048.44;;;5.04;51.77
12349;BME280;5974;42.710;27.258;2023-02-10T12:27:07;102048.47;;;5.07;51.69
12349;BME280;5974;42.710;27.258;2023-02-10T12:29:47;102045.84;;;5.05;52.28
12349;BME280;5974;42.710;27.258;2023-02-10T12:32:26;102050.06;;;4.97;51.91
12349;BME280;5974;42.710;27.258;2023-02-10T12:35:12;102042.78;;;5.36;51.74
12349;BME280;5974;42.710;27.258;2023-02-10T12:37:50;102046.72;;;5.06;51.94
12349;BME280;5974;42.710;27.258;2023-02-10T12:40:35;102046.88;;;5.16;52.92
12349;BME280;5974;42.710;27.258;2023-02-10T12:43:13;102036.81;;;5.45;52.27
12349;BME280;5974;42.710;27.258;2023-02-10T12:45:50;102043.34;;;5.13;52.55
12349;BME280;5974;42.710;27.258;2023-02-10T12:48:25;102035.00;;;5.36;52.09
12349;BME280;5974;42.710;27.258;2023-02-10T12:51:19;102045.00;;;5.81;51.05
12349;BME280;5974;42.710;27.258;2023-02-10T12:53:55;102033.88;;;5.15;51.96
12349;BME280;5974;42.710;27.258;2023-02-10T12:56:25;102039.41;;;5.43;52.06
12349;BME280;5974;42.710;27.258;2023-02-10T12:58:57;102035.03;;;4.72;52.07
12349;BME280;5974;42.710;27.258;2023-02-10T13:01:31;102030.63;;;5.32;51.80
12349;BME280;5974;42.710;27.258;2023-02-10T13:04:05;102033.78;;;5.09;52.56
12349;BME280;5974;42.710;27.258;2023-02-10T13:06:37;102026.13;;;5.97;52.08
12349;BME280;5974;42.710;27.258;2023-02-10T13:09:13;102034.50;;;5.72;51.84